Time;durP1;ratioP1;P1;durP2;ratioP2;P2;SDS_P1;SDS_P2;PMS_P1;PMS_P2;Temp;Humidity;BMP_temperature;BMP_pressure;BME280_temperature;BME280_humidity;BME280_pressure;Samples;Min_cycle;Max_cycle;Signal;HPM_P1;HPM_P2
2023/03/24 00:01:51;;;;;;;16.63;11.18;;;;;;;-144.57;100.00;62443.72;4752586;30;20055;-61
2023/03/24 00:04:18;;;;;;;21.83;12.10;;;;;;;-144.57;100.00;62443.72;4752459;30;20062;-61
2023/03/24 00:06:44;;;;;;;19.35;11.80;;;;;;;-144.57;100.00;62443.72;4772560;30;20051;-62
2023/03/24 00:09:10;;;;;;;22.73;11.88;;;;;;;-144.57;100.00;62443.72;4752590;30;20090;-61
2023/03/24 00:11:36;;;;;;;19.20;12.23;;;;;;;-144.57;100.00;62443.72;4759369;30;20055;-63
2023/03/24 00:14:02;;;;;;;21.42;12.50;;;;;;;-144.57;100.00;62443.72;4769933;30;20063;-60
2023/03/24 00:16:28;;;;;;;20.42;12.32;;;;;;;-144.57;100.00;62443.72;4754643;30;20058;-62
2023/03/24 00:18:54;;;;;;;20.13;11.88;;;;;;;-144.57;100.00;62443.72;4755460;30;20067;-61
2023/03/24 00:21:25;;;;;;;24.52;12.20;;;;;;;-144.57;100.00;62443.72;4755176;30;20055;-64
2023/03/24 00:23:54;;;;;;;17.33;11.40;;;;;;;-144.57;100.00;62443.72;4770299;30;20157;-61
2023/03/24 00:26:20;;;;;;;20.52;13.27;;;;;;;-144.57;100.00;62443.72;4770097;30;20067;-61
2023/03/24 00:28:47;;;;;;;20.10;11.88;;;;;;;-144.57;100.00;62443.72;4770214;30;20062;-62
2023/03/24 00:31:15;;;;;;;21.08;12.35;;;;;;;-144.57;100.00;62443.72;4786874;30;20067;-63
2023/03/24 00:33:42;;;;;;;20.08;12.77;;;;;;;-144.57;100.00;62443.72;4770271;30;20111;-63
2023/03/24 00:36:12;;;;;;;20.17;12.60;;;;;;;-144.57;100.00;62443.72;4755682;30;20104;-63
2023/03/24 00:38:40;;;;;;;20.02;12.93;;;;;;;-144.57;100.00;62443.72;4767527;30;20570;-61
2023/03/24 00:41:07;;;;;;;21.63;12.82;;;;;;;-144.57;100.00;62443.72;4782185;30;20070;-62
2023/03/24 00:43:34;;;;;;;17.83;12.13;;;;;;;-144.57;100.00;62443.72;4740231;30;20470;-62
2023/03/24 00:46:02;;;;;;;18.83;11.95;;;;;;;-144.57;100.00;62443.72;4786193;30;20090;-61
2023/03/24 00:48:29;;;;;;;24.02;12.98;;;;;;;-144.57;100.00;62443.72;4784913;30;20059;-62
2023/03/24 00:50:55;;;;;;;23.23;13.40;;;;;;;-144.57;100.00;62443.72;4770267;30;20066;-62
2023/03/24 00:53:24;;;;;;;23.17;13.50;;;;;;;-144.57;100.00;62443.72;4752516;30;20443;-61
2023/03/24 00:55:50;;;;;;;22.63;13.27;;;;;;;-144.57;100.00;62443.72;4723581;30;20508;-62
2023/03/24 00:58:18;;;;;;;22.13;12.85;;;;;;;-144.57;100.00;62443.72;4773199;30;20523;-61
2023/03/24 01:00:49;;;;;;;24.90;13.38;;;;;;;-144.57;100.00;62443.72;4768715;30;20458;-63
2023/03/24 01:03:15;;;;;;;20.13;12.75;;;;;;;-144.57;100.00;62443.72;4781972;30;20059;-61
2023/03/24 01:05:46;;;;;;;24.90;13.98;;;;;;;-144.57;100.00;62443.72;4767088;30;20051;-63
2023/03/24 01:08:19;;;;;;;19.63;12.07;;;;;;;-144.57;100.00;62443.72;4769969;30;20059;-62
2023/03/24 01:10:52;;;;;;;22.83;12.57;;;;;;;-144.57;100.00;62443.72;4786219;30;20074;-60
2023/03/24 01:13:24;;;;;;;23.08;13.68;;;;;;;-144.57;100.00;62443.72;4786083;30;20148;-62
2023/03/24 01:15:51;;;;;;;22.98;13.73;;;;;;;-144.57;100.00;62443.72;4769911;30;20541;-61
2023/03/24 01:18:17;;;;;;;20.40;13.30;;;;;;;-144.57;100.00;62443.72;4754966;30;20526;-60
2023/03/24 01:20:45;;;;;;;20.08;13.10;;;;;;;-144.57;100.00;62443.72;4786260;30;20063;-62
2023/03/24 01:23:13;;;;;;;20.33;13.07;;;;;;;-144.57;100.00;62443.72;4769748;30;20071;-61
2023/03/24 01:25:44;;;;;;;21.40;13.23;;;;;;;-144.57;100.00;62443.72;4770065;30;20082;-62
2023/03/24 01:28:11;;;;;;;;;;;;;;;-144.57;100.00;62443.72;4771883;30;20068;-62
2023/03/24 01:30:38;;;;;;;21.88;13.02;;;;;;;-144.57;100.00;62443.72;4773219;30;20447;-62
2023/03/24 01:33:03;;;;;;;21.80;13.00;;;;;;;-144.57;100.00;62443.72;4773290;30;20055;-61
2023/03/24 01:35:29;;;;;;;22.05;13.35;;;;;;;-144.57;100.00;62443.72;4773261;30;20055;-62
2023/03/24 01:37:56;;;;;;;21.50;13.68;;;;;;;-144.57;100.00;62443.72;4789279;30;20113;-62
2023/03/24 01:40:28;;;;;;;20.60;12.60;;;;;;;-144.57;100.00;62443.72;4785376;30;20166;-61
2023/03/24 01:42:55;;;;;;;20.85;12.85;;;;;;;-144.57;100.00;62443.72;4773499;30;20065;-62
2023/03/24 01:45:39;;;;;;;24.17;14.38;;;;;;;-144.57;100.00;62443.72;4758767;30;20064;-61
2023/03/24 01:48:19;;;;;;;22.63;14.15;;;;;;;-144.57;100.00;62443.72;4773206;30;20059;-62
2023/03/24 01:51:07;;;;;;;20.15;13.88;;;;;;;-144.57;100.00;62443.72;4787649;30;20124;-63
2023/03/24 01:53:37;;;;;;;20.45;13.45;;;;;;;-144.57;100.00;62443.72;4773299;30;20162;-62
2023/03/24 01:56:04;;;;;;;;;;;;;;;-144.57;100.00;62443.72;4773357;30;20120;-61
2023/03/24 01:58:40;;;;;;;24.88;13.60;;;;;;;-144.57;100.00;62443.72;4787862;30;19929;-62
2023/03/24 02:01:28;;;;;;;24.25;14.00;;;;;;;-144.57;100.00;62443.72;4772709;30;20588;-61
2023/03/24 02:04:04;;;;;;;23.58;13.95;;;;;;;-144.57;100.00;62443.72;4786838;30;20071;-62
2023/03/24 02:06:32;;;;;;;21.73;13.90;;;;;;;-144.57;100.00;62443.72;4769736;30;20056;-62
2023/03/24 02:09:00;;;;;;;21.00;13.73;;;;;;;-144.57;100.00;62443.72;4784813;29;20121;-62
2023/03/24 02:11:31;;;;;;;21.73;13.00;;;;;;;-144.57;100.00;62443.72;4787505;30;20055;-62
2023/03/24 02:14:01;;;;;;;25.90;14.65;;;;;;;-144.57;100.00;62443.72;4789030;30;20067;-63
2023/03/24 02:16:45;;;;;;;20.65;13.57;;;;;;;-144.57;100.00;62443.72;4772488;30;20059;-61
2023/03/24 02:19:49;;;;;;;21.23;13.27;;;;;;;-144.57;100.00;62443.72;4757193;30;20059;-63
2023/03/24 02:22:30;;;;;;;21.25;13.93;;;;;;;-144.57;100.00;62443.72;4718438;30;20118;-62
2023/03/24 02:25:08;;;;;;;24.50;15.27;;;;;;;-144.57;100.00;62443.72;4769384;30;20059;-62
2023/03/24 02:27:43;;;;;;;21.30;13.73;;;;;;;-144.57;100.00;62443.72;4788917;30;20281;-61
2023/03/24 02:30:46;;;;;;;21.85;13.60;;;;;;;-144.57;100.00;62443.72;4787206;30;20063;-62
2023/03/24 02:33:30;;;;;;;23.25;12.45;;;;;;;-144.57;100.00;62443.72;4772328;30;20070;-63
2023/03/24 02:36:35;;;;;;;20.25;13.27;;;;;;;-144.57;100.00;62443.72;4788627;30;20047;-62
2023/03/24 02:39:29;;;;;;;20.10;13.40;;;;;;;-144.57;100.00;62443.72;4786255;29;20062;-62
2023/03/24 02:42:10;;;;;;;25.42;12.95;;;;;;;-144.57;100.00;62443.72;4754376;30;20132;-61
2023/03/24 02:44:52;;;;;;;22.15;14.52;;;;;;;-144.57;100.00;62443.72;4739910;30;20519;-62
2023/03/24 02:47:30;;;;;;;21.30;13.88;;;;;;;-144.57;100.00;62443.72;4783088;30;20601;-61
2023/03/24 02:50:14;;;;;;;20.33;13.20;;;;;;;-144.57;100.00;62443.72;4783857;30;20070;-61
2023/03/24 02:52:52;;;;;;;22.08;13.02;;;;;;;-144.57;100.00;62443.72;4765957;30;20183;-62
2023/03/24 02:55:24;;;;;;;21.98;13.20;;;;;;;-144.57;100.00;62443.72;4766084;30;20067;-62
2023/03/24 02:57:58;;;;;;;22.58;13.95;;;;;;;-144.57;100.00;62443.72;4739370;30;20091;-61
2023/03/24 03:00:58;;;;;;;18.77;12.77;;;;;;;-144.57;100.00;62443.72;4754524;30;20064;-60
2023/03/24 03:03:51;;;;;;;;;;;;;;;-144.57;100.00;62443.72;4769587;30;20321;-61
2023/03/24 03:06:28;;;;;;;23.33;13.63;;;;;;;-144.57;100.00;62443.72;4753874;30;20464;-60
2023/03/24 03:08:56;;;;;;;22.50;13.10;;;;;;;-144.57;100.00;62443.72;4753805;30;20056;-62
2023/03/24 03:11:22;;;;;;;18.40;12.40;;;;;;;-144.57;100.00;62443.72;4768579;30;20055;-61
2023/03/24 03:13:58;;;;;;;20.63;13.35;;;;;;;-144.57;100.00;62443.72;4768488;30;20095;-61
2023/03/24 03:16:38;;;;;;;22.05;13.55;;;;;;;-144.57;100.00;62443.72;4768701;30;20059;-61
2023/03/24 03:19:28;;;;;;;19.98;13.50;;;;;;;-144.57;100.00;62443.72;4768962;30;20067;-60
2023/03/24 03:21:56;;;;;;;21.05;13.77;;;;;;;-144.57;100.00;62443.72;4764549;30;20072;-61
2023/03/24 03:24:26;;;;;;;19.92;12.90;;;;;;;-144.57;100.00;62443.72;4768587;30;20056;-62
2023/03/24 03:27:02;;;;;;;18.98;13.32;;;;;;;-144.57;100.00;62443.72;4783451;30;20086;-61
2023/03/24 03:29:32;;;;;;;23.48;14.93;;;;;;;-144.57;100.00;62443.72;4783696;30;20106;-62
2023/03/24 03:32:06;;;;;;;22.95;13.82;;;;;;;-144.57;100.00;62443.72;4769748;30;20044;-62
2023/03/24 03:34:43;;;;;;;21.33;14.05;;;;;;;-144.57;100.00;62443.72;4769322;30;20064;-61
2023/03/24 03:37:42;;;;;;;21.50;13.23;;;;;;;-144.57;100.00;62443.72;4768676;30;20101;-62
2023/03/24 03:40:19;;;;;;;22.45;13.90;;;;;;;-144.57;100.00;62443.72;4782966;30;20124;-62
2023/03/24 03:42:50;;;;;;;21.92;13.73;;;;;;;-144.57;100.00;62443.72;4753839;30;20059;-61
2023/03/24 03:45:16;;;;;;;21.52;13.88;;;;;;;-144.57;100.00;62443.72;4768620;30;20065;-62
2023/03/24 03:47:43;;;;;;;22.98;14.35;;;;;;;-144.57;100.00;62443.72;4753139;30;20146;-62
2023/03/24 03:50:09;;;;;;;24.40;14.60;;;;;;;-144.57;100.00;62443.72;4768143;30;20499;-62
2023/03/24 03:52:38;;;;;;;23.38;13.88;;;;;;;-144.57;100.00;62443.72;4767957;30;20087;-62
2023/03/24 03:55:05;;;;;;;25.13;15.30;;;;;;;-144.57;100.00;62443.72;4750372;30;20519;-62
2023/03/24 03:57:32;;;;;;;24.67;14.40;;;;;;;-144.57;100.00;62443.72;4749874;30;20056;-62
2023/03/24 04:00:06;;;;;;;23.17;14.75;;;;;;;-144.57;100.00;62443.72;4764930;30;20055;-62
2023/03/24 04:02:51;;;;;;;22.63;14.23;;;;;;;-144.57;100.00;62443.72;4768069;30;20063;-61
2023/03/24 04:05:44;;;;;;;25.58;15.23;;;;;;;-144.57;100.00;62443.72;4782687;30;20075;-62
2023/03/24 04:08:33;;;;;;;21.98;15.20;;;;;;;-144.57;100.00;62443.72;4768073;30;20520;-63
2023/03/24 04:11:37;;;;;;;24.33;14.93;;;;;;;-144.57;100.00;62443.72;4757179;30;20083;-62
2023/03/24 04:14:30;;;;;;;21.52;13.55;;;;;;;-144.57;100.00;62443.72;4756068;30;20151;-63
2023/03/24 04:17:25;;;;;;;23.65;14.68;;;;;;;-144.57;100.00;62443.72;4764725;30;20060;-65
2023/03/24 04:20:15;;;;;;;25.27;15.48;;;;;;;-144.57;100.00;62443.72;4759270;30;20130;-64
2023/03/24 04:22:47;;;;;;;22.40;15.80;;;;;;;-144.57;100.00;62443.72;4767554;30;20074;-62
2023/03/24 04:25:39;;;;;;;25.05;16.02;;;;;;;-144.57;100.00;62443.72;4767450;30;20441;-64
2023/03/24 04:28:41;;;;;;;25.67;14.60;;;;;;;-144.57;100.00;62443.72;4767505;30;20082;-63
2023/03/24 04:31:13;;;;;;;23.40;14.85;;;;;;;-144.57;100.00;62443.72;4766975;30;20052;-63
2023/03/24 04:33:50;;;;;;;23.92;15.43;;;;;;;-144.57;100.00;62443.72;4782267;29;20064;-63
2023/03/24 04:36:21;;;;;;;27.02;16.30;;;;;;;-144.57;100.00;62443.72;4771321;30;20522;-65
2023/03/24 04:39:06;;;;;;;29.33;17.25;;;;;;;-144.57;100.00;62443.72;4758144;30;20192;-65
2023/03/24 04:41:39;;;;;;;25.13;16.73;;;;;;;-144.57;100.00;62443.72;4735316;30;20090;-65
2023/03/24 04:44:13;;;;;;;24.85;16.10;;;;;;;-144.57;100.00;62443.72;4763536;30;20082;-65
2023/03/24 04:46:56;;;;;;;28.65;17.13;;;;;;;-144.57;100.00;62443.72;4766097;30;20510;-64
2023/03/24 04:49:26;;;;;;;26.13;16.55;;;;;;;-144.57;100.00;62443.72;4753354;30;20059;-66
2023/03/24 04:51:52;;;;;;;27.67;17.73;;;;;;;-144.57;100.00;62443.72;4770726;30;20063;-65
2023/03/24 04:54:22;;;;;;;27.98;16.92;;;;;;;-144.57;100.00;62443.72;4741279;30;20097;-64
2023/03/24 04:56:54;;;;;;;27.45;18.23;;;;;;;-144.57;100.00;62443.72;4755036;30;20465;-64
2023/03/24 04:59:41;;;;;;;28.08;16.52;;;;;;;-144.57;100.00;62443.72;4758156;30;20109;-66
2023/03/24 05:02:09;;;;;;;26.42;16.50;;;;;;;-144.57;100.00;62443.72;4784097;29;20154;-63
2023/03/24 05:04:43;;;;;;;30.77;17.25;;;;;;;-144.57;100.00;62443.72;4769892;30;20123;-65
2023/03/24 05:07:23;;;;;;;24.98;16.60;;;;;;;-144.57;100.00;62443.72;4783133;30;20056;-63
2023/03/24 05:09:55;;;;;;;31.98;18.20;;;;;;;-144.57;100.00;62443.72;4770368;30;20476;-63
2023/03/24 05:12:21;;;;;;;31.35;17.73;;;;;;;-144.57;100.00;62443.72;4754007;30;20055;-62
2023/03/24 05:15:07;;;;;;;27.08;16.85;;;;;;;-144.57;100.00;62443.72;4749172;30;20127;-62
2023/03/24 05:17:34;;;;;;;28.92;17.55;;;;;;;-144.57;100.00;62443.72;4784494;30;20096;-64
2023/03/24 05:20:00;;;;;;;27.45;18.02;;;;;;;-144.57;100.00;62443.72;4755117;30;20106;-63
2023/03/24 05:22:26;;;;;;;29.40;18.10;;;;;;;-144.57;100.00;62443.72;4766417;30;20197;-66
2023/03/24 05:24:52;;;;;;;34.05;18.38;;;;;;;-144.57;100.00;62443.72;4752145;30;20111;-63
2023/03/24 05:27:17;;;;;;;31.75;19.40;;;;;;;-144.57;100.00;62443.72;4754371;30;20062;-64
2023/03/24 05:29:43;;;;;;;30.90;18.75;;;;;;;-144.57;100.00;62443.72;4770002;30;20059;-65
2023/03/24 05:32:14;;;;;;;31.02;19.17;;;;;;;-144.57;100.00;62443.72;4754506;30;20559;-65
2023/03/24 05:34:40;;;;;;;30.80;18.75;;;;;;;-144.57;100.00;62443.72;4784838;30;20158;-63
2023/03/24 05:37:13;;;;;;;24.95;16.67;;;;;;;-144.57;100.00;62443.72;4769479;30;20549;-63
2023/03/24 05:39:39;;;;;;;29.58;18.23;;;;;;;-144.57;100.00;62443.72;4755552;30;20059;-63
2023/03/24 05:42:10;;;;;;;30.00;18.40;;;;;;;-144.57;100.00;62443.72;4754398;30;20102;-64
2023/03/24 05:44:35;;;;;;;29.27;18.63;;;;;;;-144.57;100.00;62443.72;4784746;30;20063;-63
2023/03/24 05:47:05;;;;;;;27.85;17.58;;;;;;;-144.57;100.00;62443.72;4760518;30;20595;-62
2023/03/24 05:49:31;;;;;;;27.35;17.23;;;;;;;-144.57;100.00;62443.72;4781323;30;20501;-63
2023/03/24 05:51:57;;;;;;;28.75;18.40;;;;;;;-144.57;100.00;62443.72;4766094;30;20063;-63
2023/03/24 05:54:25;;;;;;;28.73;17.73;;;;;;;-144.57;100.00;62443.72;4757106;30;20118;-62
2023/03/24 05:56:59;;;;;;;28.63;17.88;;;;;;;-144.57;100.00;62443.72;4764479;30;20051;-63
2023/03/24 05:59:25;;;;;;;30.13;18.20;;;;;;;-144.57;100.00;62443.72;4752375;30;20572;-63
2023/03/24 06:01:57;;;;;;;29.40;17.58;;;;;;;-144.57;100.00;62443.72;4749175;30;20239;-65
2023/03/24 06:04:45;;;;;;;30.00;18.20;;;;;;;-144.57;100.00;62443.72;4766998;30;20154;-61
2023/03/24 06:07:15;;;;;;;25.73;16.45;;;;;;;-144.57;100.00;62443.72;4751881;30;20086;-62
2023/03/24 06:09:45;;;;;;;31.58;17.92;;;;;;;-144.57;100.00;62443.72;4750916;30;20059;-64
2023/03/24 06:12:14;;;;;;;29.48;18.02;;;;;;;-144.57;100.00;62443.72;4756729;30;20478;-62
2023/03/24 06:14:50;;;;;;;25.27;16.40;;;;;;;-144.57;100.00;62443.72;4767937;30;20518;-63
2023/03/24 06:17:17;;;;;;;28.58;17.45;;;;;;;-144.57;100.00;62443.72;4783505;30;20157;-63
2023/03/24 06:19:48;;;;;;;27.05;16.95;;;;;;;-144.57;100.00;62443.72;4768381;30;20063;-62
2023/03/24 06:22:37;;;;;;;29.33;17.45;;;;;;;-144.57;100.00;62443.72;4735369;30;20049;-62
2023/03/24 06:25:08;;;;;;;30.40;18.20;;;;;;;-144.57;100.00;62443.72;4740050;30;20076;-64
2023/03/24 06:27:35;;;;;;;27.33;17.25;;;;;;;-144.57;100.00;62443.72;4751975;30;20082;-61
2023/03/24 06:30:02;;;;;;;28.67;17.98;;;;;;;-144.57;100.00;62443.72;4770202;30;20059;-62
2023/03/24 06:32:29;;;;;;;27.65;18.17;;;;;;;-144.57;100.00;62443.72;4768212;30;20478;-61
2023/03/24 06:34:55;;;;;;;26.10;16.80;;;;;;;-144.57;100.00;62443.72;4767663;30;20600;-62
2023/03/24 06:37:44;;;;;;;26.50;16.30;;;;;;;-144.57;100.00;62443.72;4769969;30;20087;-63
2023/03/24 06:40:14;;;;;;;23.77;15.40;;;;;;;-144.57;100.00;62443.72;4770306;30;20118;-62
2023/03/24 06:42:46;;;;;;;23.85;15.70;;;;;;;-144.57;100.00;62443.72;4770707;30;20438;-61
2023/03/24 06:45:12;;;;;;;23.80;14.35;;;;;;;-144.57;100.00;62443.72;4787263;30;20089;-63
2023/03/24 06:47:37;;;;;;;23.02;15.13;;;;;;;-144.57;100.00;62443.72;4786010;29;20094;-62
2023/03/24 06:50:05;;;;;;;23.05;14.80;;;;;;;-144.57;100.00;62443.72;4770301;30;20059;-63
2023/03/24 06:52:32;;;;;;;23.92;15.05;;;;;;;-144.57;100.00;62443.72;4771567;30;20150;-61
2023/03/24 06:54:58;;;;;;;22.98;14.65;;;;;;;-144.57;100.00;62443.72;4769992;30;20579;-62
2023/03/24 06:57:26;;;;;;;22.88;14.75;;;;;;;-144.57;100.00;62443.72;4756517;30;20051;-61
2023/03/24 07:00:10;;;;;;;23.52;14.10;;;;;;;-144.57;100.00;62443.72;4757753;30;20067;-63
2023/03/24 07:02:48;;;;;;;22.58;13.82;;;;;;;-144.57;100.00;62443.72;4785731;30;20070;-63
2023/03/24 07:05:14;;;;;;;23.17;14.02;;;;;;;-144.57;100.00;62443.72;4770839;30;20083;-63
2023/03/24 07:07:43;;;;;;;20.60;13.57;;;;;;;-144.57;100.00;62443.72;4771226;30;20059;-61
2023/03/24 07:10:32;;;;;;;19.77;13.13;;;;;;;-144.57;100.00;62443.72;4754045;30;20154;-62
2023/03/24 07:13:00;;;;;;;21.48;13.07;;;;;;;-144.57;100.00;62443.72;4770949;30;20069;-61
2023/03/24 07:15:26;;;;;;;16.98;12.25;;;;;;;-144.57;100.00;62443.72;4755767;30;20051;-63
2023/03/24 07:17:53;;;;;;;19.73;13.18;;;;;;;-144.57;100.00;62443.72;4752818;30;20058;-62
2023/03/24 07:20:35;;;;;;;17.60;12.32;;;;;;;-144.57;100.00;62443.72;4755842;30;20055;-61
2023/03/24 07:23:11;;;;;;;18.23;11.70;;;;;;;-144.57;100.00;62443.72;4760756;30;20067;-61
2023/03/24 08:08:10;;;;;;;16.08;11.30;;;;;;;8.53;84.77;97623.16;5103469;27;20385;-63
2023/03/24 08:10:36;;;;;;;14.25;10.80;;;;;;;8.60;83.10;97623.66;5100537;28;20559;-65
2023/03/24 08:13:02;;;;;;;14.52;10.30;;;;;;;8.62;82.76;97624.22;5104699;28;20047;-64
2023/03/24 08:15:28;;;;;;;15.38;10.15;;;;;;;8.68;83.56;97621.53;5087125;28;20048;-63
2023/03/24 08:17:55;;;;;;;14.38;10.18;;;;;;;8.75;83.18;97628.13;5084241;28;20040;-62
2023/03/24 08:20:23;;;;;;;12.65;9.73;;;;;;;8.89;82.93;97620.44;5084734;28;20520;-64
2023/03/24 08:22:48;;;;;;;12.43;9.77;;;;;;;8.99;81.18;97620.38;5083911;28;20131;-63
2023/03/24 08:25:16;;;;;;;12.50;9.30;;;;;;;9.12;80.95;97637.53;5096596;28;20122;-63
2023/03/24 08:27:43;;;;;;;13.25;9.00;;;;;;;9.21;81.57;97638.56;5087802;28;20063;-62
2023/03/24 08:30:12;;;;;;;14.43;8.98;;;;;;;9.19;80.70;97634.59;5099656;28;20604;-63
2023/03/24 08:32:44;;;;;;;13.20;9.55;;;;;;;9.20;80.70;97622.94;5080028;28;20509;-62
2023/03/24 08:35:13;;;;;;;13.52;9.43;;;;;;;9.13;79.70;97619.81;5093473;28;20036;-62
2023/03/24 08:37:42;;;;;;;12.38;9.50;;;;;;;9.07;80.55;97633.06;5085315;28;20094;-63
2023/03/24 08:40:13;;;;;;;11.80;8.63;;;;;;;9.11;80.01;97635.94;5046294;28;20573;-64
2023/03/24 08:42:40;;;;;;;13.40;8.85;;;;;;;9.17;79.92;97634.84;5071121;28;20045;-63
2023/03/24 08:45:08;;;;;;;11.63;8.60;;;;;;;9.16;80.76;97643.06;5066232;28;20089;-62
2023/03/24 08:47:34;;;;;;;14.82;8.95;;;;;;;9.20;80.73;97642.25;5083181;28;20056;-62
2023/03/24 08:49:59;;;;;;;12.05;8.57;;;;;;;9.23;79.87;97643.56;5084277;28;20036;-63
2023/03/24 08:52:25;;;;;;;10.85;8.50;;;;;;;9.32;81.38;97637.47;5084814;28;20082;-63
2023/03/24 08:54:51;;;;;;;12.82;8.45;;;;;;;9.37;80.09;97643.78;5082813;28;20075;-63
2023/03/24 08:57:17;;;;;;;13.25;9.13;;;;;;;9.30;80.49;97641.44;5088171;28;20040;-64
2023/03/24 08:59:43;;;;;;;14.05;8.38;;;;;;;9.39;80.96;97646.94;5085683;28;20059;-63
2023/03/24 09:02:10;;;;;;;11.93;9.02;;;;;;;9.51;80.82;97647.41;5083361;28;20051;-63
2023/03/24 09:04:36;;;;;;;12.40;8.60;;;;;;;9.60;79.71;97651.06;5085349;28;20039;-66
2023/03/24 09:07:03;;;;;;;11.45;8.65;;;;;;;9.63;80.25;97644.44;5083315;28;20513;-64
2023/03/24 09:09:29;;;;;;;10.30;7.57;;;;;;;9.60;79.14;97651.06;5090617;28;20040;-64
2023/03/24 09:11:55;;;;;;;13.07;7.75;;;;;;;9.50;78.34;97649.28;5073195;28;20032;-63
2023/03/24 09:14:21;;;;;;;10.43;7.57;;;;;;;9.41;78.66;97664.13;5071743;28;20036;-60
2023/03/24 09:16:48;;;;;;;9.52;7.25;;;;;;;9.40;78.97;97661.75;5069549;28;20048;-61
2023/03/24 09:19:18;;;;;;;11.00;7.75;;;;;;;9.31;78.99;97662.28;5089308;28;20523;-63
2023/03/24 09:21:45;;;;;;;11.45;7.90;;;;;;;9.29;79.66;97666.28;5072149;28;20523;-62
2023/03/24 09:24:12;;;;;;;10.32;7.78;;;;;;;9.28;78.83;97657.53;5091996;28;20075;-63
2023/03/24 09:26:37;;;;;;;8.70;7.30;;;;;;;9.17;79.31;97671.06;5069573;28;20048;-63
2023/03/24 09:29:03;;;;;;;9.52;7.35;;;;;;;9.13;80.33;97670.03;5070101;28;20047;-63
2023/03/24 09:31:29;;;;;;;10.48;6.63;;;;;;;9.10;80.13;97674.00;5069855;28;20043;-64
2023/03/24 09:33:55;;;;;;;8.80;6.60;;;;;;;9.15;79.77;97671.38;5072329;28;20032;-68
2023/03/24 09:36:21;;;;;;;10.23;7.95;;;;;;;9.13;79.97;97672.69;5067857;28;20090;-65
2023/03/24 09:38:46;;;;;;;9.43;6.95;;;;;;;9.11;79.55;97670.31;5086965;28;20086;-63
2023/03/24 09:41:32;;;;;;;9.63;7.18;;;;;;;9.16;80.17;97680.09;5083760;28;20101;-63
2023/03/24 09:44:25;;;;;;;9.70;7.07;;;;;;;9.14;80.28;97679.56;5088260;28;20035;-63
2023/03/24 09:47:01;;;;;;;9.93;7.45;;;;;;;9.12;79.43;97676.38;5050163;28;20464;-62
2023/03/24 09:49:29;;;;;;;10.55;7.60;;;;;;;9.10;79.62;97687.22;5077145;28;20067;-62
2023/03/24 09:52:02;;;;;;;10.02;7.78;;;;;;;9.05;80.14;97681.94;5073192;28;20417;-65
2023/03/24 09:54:49;;;;;;;9.68;7.65;;;;;;;9.15;80.66;97692.50;5066754;28;20449;-63
2023/03/24 09:57:27;;;;;;;9.35;6.97;;;;;;;9.15;80.58;97694.34;5067998;28;20417;-63
2023/03/24 09:59:53;;;;;;;10.85;7.38;;;;;;;9.14;80.09;97696.19;5069146;28;20036;-63
2023/03/24 10:02:20;;;;;;;9.60;7.07;;;;;;;9.12;81.34;97686.94;5081472;28;20048;-66
2023/03/24 10:04:47;;;;;;;10.98;7.22;;;;;;;9.10;80.26;97688.00;5079328;28;20037;-64
2023/03/24 10:07:36;;;;;;;11.25;7.95;;;;;;;9.08;80.85;97689.34;5082631;28;20464;-63
2023/03/24 10:10:02;;;;;;;8.93;6.70;;;;;;;9.02;80.30;97693.84;5081301;28;20045;-64
2023/03/24 10:12:36;;;;;;;8.77;6.72;;;;;;;9.05;80.77;97697.81;5068965;28;20528;-64
2023/03/24 10:15:31;;;;;;;9.07;6.80;;;;;;;9.01;80.50;97694.91;5086662;28;20221;-64
2023/03/24 10:18:09;;;;;;;10.05;6.75;;;;;;;9.23;80.16;97693.78;5075567;28;20139;-64
2023/03/24 10:20:41;;;;;;;12.65;7.60;;;;;;;9.44;79.44;97700.59;5068741;28;20040;-62
2023/03/24 10:23:34;;;;;;;9.90;7.25;;;;;;;9.61;78.62;97702.09;5086648;28;20138;-64
2023/03/24 10:26:31;;;;;;;9.02;7.13;;;;;;;9.69;77.95;97704.19;5076151;28;20047;-63
2023/03/24 10:29:21;;;;;;;9.48;6.90;;;;;;;9.89;76.67;97713.88;5037171;28;20051;-65
2023/03/24 10:31:58;;;;;;;7.93;6.00;;;;;;;10.03;76.08;97709.56;5065041;28;20055;-62
2023/03/24 10:34:28;;;;;;;7.60;5.65;;;;;;;10.18;75.86;97706.81;5067686;28;20037;-62
2023/03/24 10:36:57;;;;;;;8.65;5.75;;;;;;;10.30;75.27;97706.50;5017684;28;20086;-62
2023/03/24 10:39:23;;;;;;;8.05;5.78;;;;;;;10.42;74.69;97704.28;5049871;28;20537;-62
2023/03/24 10:41:50;;;;;;;7.72;5.80;;;;;;;10.56;74.53;97712.38;5067900;28;20048;-62
2023/03/24 10:44:17;;;;;;;8.88;5.70;;;;;;;10.52;73.59;97706.03;5070062;28;20044;-62
2023/03/24 10:46:48;;;;;;;7.22;5.60;;;;;;;10.31;74.32;97702.75;5066909;28;20036;-61
2023/03/24 10:49:18;;;;;;;8.30;6.35;;;;;;;10.23;74.95;97711.25;5051773;28;20596;-62
2023/03/24 10:52:08;;;;;;;6.95;5.30;;;;;;;10.18;74.12;97704.16;5067123;28;20036;-62
2023/03/24 10:54:34;;;;;;;6.68;5.40;;;;;;;10.33;74.01;97711.22;5071287;28;20039;-62
2023/03/24 10:57:02;;;;;;;6.93;5.30;;;;;;;10.47;73.53;97714.06;5072331;28;20496;-63
2023/03/24 10:59:46;;;;;;;9.35;5.28;;;;;;;10.64;72.77;97722.34;5075489;28;20155;-63
2023/03/24 11:02:11;;;;;;;7.47;4.80;;;;;;;10.81;71.46;97718.53;5085323;28;20052;-65
2023/03/24 11:04:40;;;;;;;8.48;4.88;;;;;;;10.98;70.66;97716.25;5071136;28;20043;-64
2023/03/24 11:07:20;;;;;;;7.07;5.00;;;;;;;11.09;70.50;97723.03;5049013;28;20067;-62
2023/03/24 11:10:06;;;;;;;5.72;4.40;;;;;;;11.20;70.36;97721.03;5087166;28;20121;-63
2023/03/24 11:12:35;;;;;;;5.53;4.68;;;;;;;11.21;69.72;97722.63;5087308;28;20051;-62
2023/03/24 11:15:18;;;;;;;5.93;4.55;;;;;;;11.28;69.25;97716.97;5087824;28;20044;-63
2023/03/24 11:17:45;;;;;;;4.95;4.38;;;;;;;11.20;69.23;97715.72;5090167;28;20421;-64
2023/03/24 11:20:24;;;;;;;7.35;4.68;;;;;;;11.05;69.60;97727.28;5090789;28;20044;-63
2023/03/24 11:22:58;;;;;;;5.13;4.43;;;;;;;10.99;69.19;97720.47;5086087;28;20040;-64
2023/03/24 11:25:26;;;;;;;6.68;4.15;;;;;;;10.99;69.34;97727.63;5085863;28;20082;-62
2023/03/24 11:27:57;;;;;;;5.80;4.43;;;;;;;11.08;69.59;97724.06;5087725;28;20040;-62
2023/03/24 11:30:22;;;;;;;4.95;4.30;;;;;;;11.17;69.11;97734.06;5086871;28;20483;-63
2023/03/24 11:32:49;;;;;;;4.82;4.10;;;;;;;11.01;69.86;97731.59;5086030;28;20093;-62
2023/03/24 11:35:16;;;;;;;6.40;4.45;;;;;;;10.91;69.61;97736.97;5085364;28;20046;-64
2023/03/24 11:37:44;;;;;;;4.95;4.10;;;;;;;10.79;69.84;97733.91;5085399;28;20071;-63
2023/03/24 11:40:13;;;;;;;4.82;4.00;;;;;;;10.74;71.13;97741.91;5085423;28;20042;-63
2023/03/24 11:43:03;;;;;;;6.15;4.32;;;;;;;10.66;70.88;97741.44;5086238;28;20040;-63
2023/03/24 11:45:37;;;;;;;5.60;4.10;;;;;;;10.42;72.01;97749.31;5068515;28;20547;-62
2023/03/24 11:48:17;;;;;;;7.10;4.43;;;;;;;10.27;72.76;97740.69;5087019;28;20070;-63
2023/03/24 11:50:43;;;;;;;6.15;4.47;;;;;;;10.18;73.13;97745.75;5071481;28;20036;-64
2023/03/24 11:53:20;;;;;;;5.95;4.50;;;;;;;10.30;73.11;97756.03;5085657;28;20438;-62
2023/03/24 11:56:10;;;;;;;8.52;4.50;;;;;;;10.35;72.52;97750.66;5088288;28;20098;-62
2023/03/24 11:58:44;;;;;;;;;;;;;;;10.43;72.58;97756.19;5074130;28;20048;-65
2023/03/24 12:01:20;;;;;;;5.78;4.22;;;;;;;10.58;72.00;97763.22;5069333;28;19924;-62
2023/03/24 12:03:55;;;;;;;6.88;4.50;;;;;;;10.55;71.77;97755.03;5065730;28;20174;-62
2023/03/24 12:06:42;;;;;;;6.47;4.47;;;;;;;10.63;71.28;97762.41;5064728;28;20056;-62
2023/03/24 12:09:20;;;;;;;8.90;4.57;;;;;;;10.67;71.58;97764.19;5064949;28;20052;-63
2023/03/24 12:12:11;;;;;;;5.55;3.67;;;;;;;10.66;71.29;97769.78;5066790;28;20064;-61
2023/03/24 12:15:05;;;;;;;6.10;4.43;;;;;;;10.72;71.03;97766.03;5069362;28;20058;-63
2023/03/24 12:17:37;;;;;;;7.07;3.90;;;;;;;10.75;70.23;97770.00;5049036;28;20391;-63
2023/03/24 12:20:18;;;;;;;5.20;3.63;;;;;;;10.87;69.67;97776.50;5067298;28;20097;-62